Tonopah, Nevada Weather observations

Data are for observation ending at time listed.
 Day   Time    Ave.   Ave.  Ave.  Vector   Max.   Stn.    Total    Solar   Ave.  
  of    of     Air    Rel.  Wind   Wind    Wind   Baro.  Precip.   Rad.    Soil  
Year   Day     Temp.  Hum.  Speed  Dir.    Gust   Pres.                    Temp. 
2016   (PST)    F      %     mph   deg.    mph     mb.     in.     W/m2     F   
------------------------------------------------------------------------------
 125   21:40   57.1    26    4.1    98      7.5   809.2    0.00       0    60.9
 125   21:50   56.9    26    4.4    98      6.9   809.2    0.00       0    60.7
 125   22:00   56.2    27    4.2   117      6.8   809.1    0.00       0    60.6
 125   22:10   56.2    26    5.0    99      8.5   809.1    0.00       0    60.4
 125   22:20   56.3    26    4.7   110      7.8   809.1    0.00       0    60.3
 125   22:30   56.6    26    4.6   106      8.2   809.1    0.00       0    60.1
 125   22:40   56.4    26    4.1   112      7.2   809.2    0.00       0    60.0
 125   22:50   55.6    27    2.5   150      5.0   809.2    0.00       0    59.8
 125   23:00   53.0    30    2.9   196      4.8   809.2    0.00       0    59.7
 125   23:10   53.5    30    2.0   188      3.2   809.1    0.00       0    59.6
 125   23:20   53.3    30    2.6   171      5.6   809.1    0.00       0    59.4
 125   23:30   53.1    30    2.6   185      3.7   809.0    0.00       0    59.2
 125   23:40   52.5    31    2.0   154      3.9   809.0    0.00       0    59.1
 125   23:50   54.1    28    3.0   116      7.2   808.8    0.00       0    58.9
 126    0:00   54.1    29    2.3   117      4.4   808.7    0.00       0    58.8
 126    0:10   53.6    29    3.0   137      5.4   808.6    0.00       0    58.7
 126    0:20   53.1    30    3.2   136      5.6   808.5    0.00       0    58.5
 126    0:30   54.9    27    5.0    89     11.1   808.4    0.00       0    58.4
 126    0:40   55.7    26    4.8    87      8.5   808.3    0.00       0    58.2
 126    0:50   55.9    26    6.3    73     10.6   808.1    0.00       0    58.1
 126    1:00   55.6    26    6.9    68     11.0   808.0    0.00       0    58.0
 126    1:10   55.8    26    7.8    64     12.1   807.8    0.00       0    57.9
 126    1:20   56.0    25    7.4    68     11.5   807.7    0.00       0    57.8
 126    1:30   55.3    26    5.7    78      9.3   807.7    0.00       0    57.7
 126    1:40   54.0    28    4.2    93      7.9   807.7    0.00       0    57.6
 126    1:50   52.7    30    2.8   124      4.8   807.7    0.00       0    57.5
 126    2:00   53.1    29    4.2    97      9.6   807.6    0.00       0    57.4
 126    2:10   53.4    28    3.2   105      7.2   807.5    0.00       0    57.3
 126    2:20   52.3    30    2.6   153      5.1   807.5    0.00       0    57.1
 126    2:30   51.2    31    3.1   155      5.7   807.6    0.00       0    57.1
 126    2:40   51.8    30    2.8   115      6.4   807.6    0.00       0    56.9
 126    2:50   54.3    27    6.9    61     11.5   807.5    0.00       0    56.9
 126    3:00   54.4    27    6.9    69     11.1   807.4    0.00       0    56.8
 126    3:10   53.6    28    5.9    80     10.1   807.3    0.00       0    56.6
 126    3:20   52.7    30    5.6    86      8.0   807.3    0.00       0    56.5
 126    3:30   52.4    30    5.0    87      7.8   807.3    0.00       0    56.5
 126    3:40   52.2    31    5.3    84      8.8   807.3    0.00       0    56.4
 126    3:50   51.9    31    3.5   102      7.3   807.3    0.00       0    56.3
 126    4:00   51.6    32    4.7    89      7.9   807.1    0.00       0    56.2
 126    4:10   51.4    33    3.7   101      6.8   807.1    0.00       0    56.2
 126    4:20   51.3    33    4.6   106      7.2   807.0    0.00       0    56.1
 126    4:30   52.2    32    5.8    95     10.6   806.8    0.00       0    56.0
 126    4:40   51.9    33    6.3    84     10.0   806.7    0.00       0    55.9
 126    4:50   51.1    34    6.4    85     10.4   806.7    0.00       2    55.8
 126    5:00   50.5    35    6.8    84     11.3   806.7    0.00       5    55.8
 126    5:10   50.3    36    6.8    82     10.7   806.8    0.00      16    55.7
 126    5:20   50.2    36    7.4    83     11.0   806.8    0.00      33    55.6
 126    5:30   51.4    36    6.2    92     11.6   806.9    0.00      54    55.5
 126    5:40   52.8    34    6.9    90     12.6   806.9    0.00      96    55.5
 126    5:50   53.7    33    7.4    93     11.6   807.0    0.00     133    55.4
 126    6:00   54.1    33    7.5    91     12.1   807.0    0.00     137    55.4
 126    6:10   54.1    33    9.2    85     15.9   807.0    0.00     152    55.3
 126    6:20   53.8    34    7.5    86     13.2   807.1    0.00     119    55.3
 126    6:30   53.5    34    8.0    85     14.7   807.2    0.00     128    55.4
 126    6:40   53.7    35    6.7    87     11.8   807.2    0.00     158    55.4
 126    6:50   53.8    36    7.6    95     13.0   807.2    0.00     170    55.4
 126    7:00   54.0    36    7.5   100     12.6   807.2    0.00     195    55.5
 126    7:10   54.3    36    7.7    97     12.8   807.2    0.00     227    55.5
 126    7:20   54.8    36    8.0   102     13.0   807.1    0.00     239    55.5
 126    7:30   55.2    36    6.3   107     10.7   807.1    0.00     249    55.6
 126    7:40   55.6    36    7.1   108     12.4   807.1    0.00     277    55.6
 126    7:50   56.4    36    7.5   119     13.3   807.0    0.00     309    55.7
 126    8:00   56.8    36    9.7   127     18.0   807.1    0.00     300    55.8
 126    8:10   57.0    36   12.0   133     20.2   807.0    0.00     297    55.9
 126    8:20   57.2    36   10.9   134     18.0   807.1    0.00     293    56.0
 126    8:30   57.5    36    9.4   134     14.5   807.1    0.00     292    56.1
 126    8:40   57.6    36    8.1   149     12.9   807.1    0.00     319    56.2
 126    8:50   57.8    36    7.5   143     12.2   807.2    0.00     288    56.4
 126    9:00   57.7    36    5.7   145      9.8   807.2    0.00     229    56.5
 126    9:10   58.3    35    8.9   152     16.1   807.2    0.00     257    56.6
 126    9:20   58.6    34    9.6   132     18.3   807.1    0.00     272    56.7
 126    9:30   58.8    33   11.8   143     20.9   807.1    0.00     214    56.9
 126    9:40   59.4    33   10.8   135     17.0   807.1    0.00     325    57.0
 126    9:50   60.4    32   11.8   142     20.2   807.0    0.00     549    57.1
 126   10:00   60.8    31   12.4   140     28.0   807.0    0.00     446    57.2
 126   10:10   60.6    31   13.8   143     22.3   807.0    0.00     478    57.4
 126   10:20   61.3    30   14.6   133     24.0   806.9    0.00     712    57.5
 126   10:30   61.8    30   13.8   136     20.7   806.9    0.00     748    57.7
 126   10:40   61.9    29   13.8   136     22.7   806.9    0.00     703    57.8
 126   10:50   62.2    29   14.4   150     24.1   806.9    0.00     662    58.1
 126   11:00   62.3    29   14.2   148     22.6   806.8    0.00     657    58.3
 126   11:10   63.0    27   16.3   141     24.6   806.7    0.00     928    58.6
 126   11:20   63.1    27   16.1   133     27.9   806.5    0.00     718    58.8
 126   11:30   62.2    28   16.6   145     28.9   806.5    0.00     656    59.1
 126   11:40   62.4    27   16.0   132     27.3   806.5    0.00     802    59.4
 126   11:50   62.7    26   15.6   133     26.7   806.3    0.00     727    59.7
 126   12:00   62.5    27   16.9   137     27.8   806.2    0.00     611    60.0
 126   12:10   62.3    27   15.6   132     31.0   806.2    0.00     550    60.3
 126   12:20   62.5    27   14.7   132     25.1   806.1    0.00     620    60.5
 126   12:30   61.9    27   18.9   129     30.5   806.0    0.00     604    60.7
 126   12:40   62.1    27   16.8   132     27.8   806.0    0.00     642    60.9
 126   12:50   62.9    27   16.2   139     26.8   806.0    0.00     880    61.1
 126   13:00   63.1    25   16.5   136     24.6   805.9    0.00     702    61.2
 126   13:10   63.1    24   17.0   137     27.2   806.0    0.00     898    61.4
 126   13:20   63.4    23   16.8   139     25.4   805.8    0.00     840    61.6
 126   13:30   63.8    22   18.6   142     29.6   805.8    0.00     646    61.8
 126   13:40   62.2    24   15.5   139     26.2   805.9    0.00     533    62.0
 126   13:50   64.0    22   16.1   136     24.5   805.6    0.00    1037    62.2
 126   14:00   63.2    22   17.2   129     28.4   805.5    0.00     623    62.4
 126   14:10   62.9    24   16.8   133     27.4   805.4    0.00     611    62.5
 126   14:20   62.8    24   16.8   134     28.2   805.3    0.00     727    62.7
 126   14:30   63.6    20   18.6   136     30.8   805.2    0.00     863    62.9
 126   14:40   63.8    21   17.7   135     30.0   804.9    0.00     848    63.0
 126   14:50   63.8    22   16.0   127     27.2   804.9    0.00     802    63.1
 126   15:00   64.1    19   16.4   132     26.2   804.8    0.00     768    63.3
 126   15:10   63.7    18   18.3   135     33.5   804.8    0.00     746    63.4
 126   15:20   63.6    18   16.5   134     28.1   804.7    0.00     694    63.4
 126   15:30   63.6    18   16.1   139     26.2   804.6    0.00     650    63.5
 126   15:40   63.2    19   17.4   131     29.6   804.6    0.00     669    63.6
 126   15:50   62.9    18   16.3   136     29.2   804.6    0.00     523    63.6
 126   16:00   63.2    17   15.6   137     24.9   804.6    0.00     546    63.6
 126   16:10   62.9    18   16.0   140     26.8   804.6    0.00     356    63.6
 126   16:20   62.7    19   14.2   148     24.5   804.6    0.00     357    63.6
 126   16:30   62.1    20   15.7   145     25.4   804.6    0.00     319    63.6
 126   16:40   61.8    20   14.9   139     25.0   804.6    0.00     260    63.5
 126   16:50   62.4    19   14.4   145     25.7   804.6    0.00     388    63.4
 126   17:00   61.7    18   17.0   150     28.3   804.5    0.00     231    63.3
 126   17:10   60.6    17   15.9   137     26.2   804.5    0.00     138    63.3
 126   17:20   59.6    19   14.9   144     24.9   804.5    0.00     108    63.2
 126   17:30   59.1    19   14.0   144     24.5   804.6    0.00      99    63.1
 126   17:40   58.8    22   12.2   145     21.5   804.6    0.00     110    63.0
 126   17:50   58.6    23   11.6   154     18.6   804.6    0.00     123    62.9
 126   18:00   58.8    24    9.0   146     16.1   804.5    0.00      80    62.8
 126   18:10   58.5    25    9.4   139     14.8   804.6    0.00      39    62.7
 126   18:20   57.8    28    9.8    94     15.8   804.9    0.00      21    62.5
 126   18:30   55.9    33   10.5    81     22.5   805.1    0.00      10    62.4
 126   18:40   55.5    34   11.0    71     19.4   805.1    0.00       4    62.3
 126   18:50   55.5    35    7.8    83     12.5   805.2    0.00       0    62.2
 126   19:00   54.6    38   12.4   116     23.6   805.5    0.00       0    62.0
 126   19:10   51.7    50   17.3   128     28.4   806.0    0.00       0    61.9
 126   19:20   50.7    54   12.6   111     22.7   806.4    0.00       0    61.7
 126   19:30   49.7    58   12.6   120     25.1   806.5    0.00       0    61.6
 126   19:40   49.1    60   10.7   120     19.1   806.6    0.00       0    61.4
 126   19:50   48.7    60    8.1   134     17.4   806.5    0.00       0    61.2
 126   20:00   48.3    62    5.1   157      9.9   806.3    0.00       0    61.0
 126   20:10   48.6    59    4.6   149     10.0   806.4    0.00       0    60.8
 126   20:20   49.1    56    2.0   226      9.6   806.3    0.00       0    60.6
 126   20:30   49.9    49    7.0   162     14.3   806.5    0.00       0    60.4
 126   20:40   49.7    50    6.3   162     15.1   806.6    0.00       0    60.2
 126   20:50   49.5    52    9.3   188     18.3   806.6    0.00       0    60.1
 126   21:00   48.6    56    5.5   146     10.3   806.5    0.00       0    59.9
 126   21:10   48.4    56    6.6   145     12.9   806.6    0.00       0    59.8
 126   21:20   48.4    54    4.8   150      9.1   806.7    0.00       0    59.6
 126   21:30   47.9    57    3.7   143      6.3   806.8    0.00       0    59.5

Return to Tonopah, Nevada graphs page.


Western Regional Climate Center,wrcc@dri.edu